sensor_id;sensor_type;location;lat;lon;timestamp;P1;durP1;ratioP1;P2;durP2;ratioP2
64060;SDS011;60147;55.036;73.242;2022-09-23T00:02:05;3.60;;;1.23;;
64060;SDS011;60147;55.036;73.242;2022-09-23T00:04:37;2.83;;;1.30;;
64060;SDS011;60147;55.036;73.242;2022-09-23T00:07:03;3.05;;;1.00;;
64060;SDS011;60147;55.036;73.242;2022-09-23T00:09:37;7.32;;;1.00;;
64060;SDS011;60147;55.036;73.242;2022-09-23T00:12:03;2.08;;;0.90;;
64060;SDS011;60147;55.036;73.242;2022-09-23T00:14:30;2.65;;;1.15;;
64060;SDS011;60147;55.036;73.242;2022-09-23T00:16:56;4.80;;;1.30;;
64060;SDS011;60147;55.036;73.242;2022-09-23T00:19:31;3.25;;;1.25;;
64060;SDS011;60147;55.036;73.242;2022-09-23T00:21:57;4.55;;;1.10;;
64060;SDS011;60147;55.036;73.242;2022-09-23T00:24:33;2.55;;;1.30;;
64060;SDS011;60147;55.036;73.242;2022-09-23T00:27:00;1.70;;;1.08;;
64060;SDS011;60147;55.036;73.242;2022-09-23T00:29:30;3.47;;;1.30;;
64060;SDS011;60147;55.036;73.242;2022-09-23T00:31:59;2.78;;;1.05;;
64060;SDS011;60147;55.036;73.242;2022-09-23T00:34:24;3.33;;;1.20;;
64060;SDS011;60147;55.036;73.242;2022-09-23T00:36:50;2.72;;;1.15;;
64060;SDS011;60147;55.036;73.242;2022-09-23T00:39:16;2.30;;;1.10;;
64060;SDS011;60147;55.036;73.242;2022-09-23T00:41:44;3.58;;;1.20;;
64060;SDS011;60147;55.036;73.242;2022-09-23T00:47:00;4.35;;;1.40;;
64060;SDS011;60147;55.036;73.242;2022-09-23T00:49:31;6.63;;;1.50;;
64060;SDS011;60147;55.036;73.242;2022-09-23T00:51:57;13.15;;;1.35;;
64060;SDS011;60147;55.036;73.242;2022-09-23T00:54:30;9.23;;;1.50;;
64060;SDS011;60147;55.036;73.242;2022-09-23T00:57:06;5.45;;;1.35;;
64060;SDS011;60147;55.036;73.242;2022-09-23T00:59:42;11.73;;;1.30;;
64060;SDS011;60147;55.036;73.242;2022-09-23T01:02:08;8.63;;;1.52;;
64060;SDS011;60147;55.036;73.242;2022-09-23T01:04:36;6.00;;;1.55;;
64060;SDS011;60147;55.036;73.242;2022-09-23T01:07:02;4.95;;;1.20;;
64060;SDS011;60147;55.036;73.242;2022-09-23T01:09:27;5.53;;;1.60;;
64060;SDS011;60147;55.036;73.242;2022-09-23T01:22:46;5.13;;;1.30;;
64060;SDS011;60147;55.036;73.242;2022-09-23T01:28:06;8.77;;;1.52;;
64060;SDS011;60147;55.036;73.242;2022-09-23T01:33:23;4.82;;;1.38;;
64060;SDS011;60147;55.036;73.242;2022-09-23T01:35:56;8.95;;;1.50;;
64060;SDS011;60147;55.036;73.242;2022-09-23T01:45:45;9.07;;;1.50;;
64060;SDS011;60147;55.036;73.242;2022-09-23T01:51:11;9.68;;;1.40;;
64060;SDS011;60147;55.036;73.242;2022-09-23T01:56:07;8.98;;;1.40;;
64060;SDS011;60147;55.036;73.242;2022-09-23T01:58:36;5.10;;;1.58;;
64060;SDS011;60147;55.036;73.242;2022-09-23T02:01:05;5.63;;;1.73;;
64060;SDS011;60147;55.036;73.242;2022-09-23T02:06:09;12.55;;;2.10;;
64060;SDS011;60147;55.036;73.242;2022-09-23T02:08:44;7.57;;;1.55;;
64060;SDS011;60147;55.036;73.242;2022-09-23T02:11:11;8.80;;;1.92;;
64060;SDS011;60147;55.036;73.242;2022-09-23T02:13:56;7.43;;;1.40;;
64060;SDS011;60147;55.036;73.242;2022-09-23T02:16:25;7.22;;;1.42;;
64060;SDS011;60147;55.036;73.242;2022-09-23T02:21:23;5.18;;;1.45;;
64060;SDS011;60147;55.036;73.242;2022-09-23T02:24:02;6.50;;;1.42;;
64060;SDS011;60147;55.036;73.242;2022-09-23T02:29:17;5.82;;;1.67;;
64060;SDS011;60147;55.036;73.242;2022-09-23T02:34:26;3.33;;;1.58;;
64060;SDS011;60147;55.036;73.242;2022-09-23T02:37:05;6.38;;;1.70;;
64060;SDS011;60147;55.036;73.242;2022-09-23T02:39:36;4.22;;;1.40;;
64060;SDS011;60147;55.036;73.242;2022-09-23T02:42:10;6.40;;;2.35;;
64060;SDS011;60147;55.036;73.242;2022-09-23T02:44:55;37.92;;;3.33;;
64060;SDS011;60147;55.036;73.242;2022-09-23T02:47:21;14.13;;;2.13;;
64060;SDS011;60147;55.036;73.242;2022-09-23T02:49:50;14.80;;;2.63;;
64060;SDS011;60147;55.036;73.242;2022-09-23T02:52:21;10.77;;;1.98;;
64060;SDS011;60147;55.036;73.242;2022-09-23T02:54:49;14.77;;;2.08;;
64060;SDS011;60147;55.036;73.242;2022-09-23T02:57:15;10.32;;;2.10;;
64060;SDS011;60147;55.036;73.242;2022-09-23T02:59:41;7.20;;;2.35;;
64060;SDS011;60147;55.036;73.242;2022-09-23T03:16:02;14.60;;;3.63;;
64060;SDS011;60147;55.036;73.242;2022-09-23T03:18:45;10.52;;;2.90;;
64060;SDS011;60147;55.036;73.242;2022-09-23T03:24:22;8.43;;;2.55;;
64060;SDS011;60147;55.036;73.242;2022-09-23T03:26:49;8.13;;;2.70;;
64060;SDS011;60147;55.036;73.242;2022-09-23T03:29:18;12.68;;;2.90;;
64060;SDS011;60147;55.036;73.242;2022-09-23T03:31:45;8.43;;;2.80;;
64060;SDS011;60147;55.036;73.242;2022-09-23T03:34:19;11.55;;;3.10;;
64060;SDS011;60147;55.036;73.242;2022-09-23T03:39:39;12.32;;;4.68;;
64060;SDS011;60147;55.036;73.242;2022-09-23T03:42:16;13.65;;;5.25;;
64060;SDS011;60147;55.036;73.242;2022-09-23T03:44:44;19.75;;;3.92;;
64060;SDS011;60147;55.036;73.242;2022-09-23T03:47:10;11.27;;;4.10;;
64060;SDS011;60147;55.036;73.242;2022-09-23T03:49:39;13.13;;;3.85;;
64060;SDS011;60147;55.036;73.242;2022-09-23T03:52:06;12.07;;;4.32;;
64060;SDS011;60147;55.036;73.242;2022-09-23T03:54:31;12.18;;;4.45;;
64060;SDS011;60147;55.036;73.242;2022-09-23T03:56:59;9.57;;;3.80;;
64060;SDS011;60147;55.036;73.242;2022-09-23T03:59:25;9.32;;;3.50;;
64060;SDS011;60147;55.036;73.242;2022-09-23T04:01:51;13.93;;;4.03;;
64060;SDS011;60147;55.036;73.242;2022-09-23T04:04:23;7.75;;;3.40;;
64060;SDS011;60147;55.036;73.242;2022-09-23T04:06:49;17.48;;;4.68;;
64060;SDS011;60147;55.036;73.242;2022-09-23T04:09:14;12.85;;;4.47;;
64060;SDS011;60147;55.036;73.242;2022-09-23T04:11:40;13.77;;;4.57;;
64060;SDS011;60147;55.036;73.242;2022-09-23T04:14:06;15.93;;;4.53;;
64060;SDS011;60147;55.036;73.242;2022-09-23T04:16:42;9.60;;;3.97;;
64060;SDS011;60147;55.036;73.242;2022-09-23T04:19:09;17.25;;;4.88;;
64060;SDS011;60147;55.036;73.242;2022-09-23T04:21:40;10.73;;;5.57;;
64060;SDS011;60147;55.036;73.242;2022-09-23T04:24:06;17.02;;;6.03;;
64060;SDS011;60147;55.036;73.242;2022-09-23T04:26:32;14.02;;;5.53;;
64060;SDS011;60147;55.036;73.242;2022-09-23T04:29:03;15.38;;;5.93;;
64060;SDS011;60147;55.036;73.242;2022-09-23T04:31:32;14.48;;;5.82;;
64060;SDS011;60147;55.036;73.242;2022-09-23T04:33:59;17.13;;;6.63;;
64060;SDS011;60147;55.036;73.242;2022-09-23T04:36:25;20.33;;;6.90;;
64060;SDS011;60147;55.036;73.242;2022-09-23T04:38:51;18.77;;;8.07;;
64060;SDS011;60147;55.036;73.242;2022-09-23T04:41:17;33.13;;;14.77;;
64060;SDS011;60147;55.036;73.242;2022-09-23T04:43:43;26.80;;;10.45;;
64060;SDS011;60147;55.036;73.242;2022-09-23T04:46:10;19.13;;;9.05;;
64060;SDS011;60147;55.036;73.242;2022-09-23T04:48:37;22.42;;;9.95;;
64060;SDS011;60147;55.036;73.242;2022-09-23T04:51:16;23.83;;;9.27;;
64060;SDS011;60147;55.036;73.242;2022-09-23T04:53:49;18.45;;;10.18;;
64060;SDS011;60147;55.036;73.242;2022-09-23T04:56:16;22.25;;;11.10;;
64060;SDS011;60147;55.036;73.242;2022-09-23T04:58:52;21.92;;;10.75;;
64060;SDS011;60147;55.036;73.242;2022-09-23T05:03:47;24.88;;;11.60;;
64060;SDS011;60147;55.036;73.242;2022-09-23T05:06:24;30.73;;;12.23;;
64060;SDS011;60147;55.036;73.242;2022-09-23T05:08:50;28.67;;;13.13;;
64060;SDS011;60147;55.036;73.242;2022-09-23T05:11:28;25.70;;;11.80;;
64060;SDS011;60147;55.036;73.242;2022-09-23T05:13:55;25.13;;;12.13;;
64060;SDS011;60147;55.036;73.242;2022-09-23T05:16:26;27.88;;;12.07;;
64060;SDS011;60147;55.036;73.242;2022-09-23T05:21:26;33.53;;;12.63;;
64060;SDS011;60147;55.036;73.242;2022-09-23T05:23:54;27.00;;;12.70;;
64060;SDS011;60147;55.036;73.242;2022-09-23T05:26:21;35.65;;;13.40;;
64060;SDS011;60147;55.036;73.242;2022-09-23T05:28:58;25.63;;;11.63;;
64060;SDS011;60147;55.036;73.242;2022-09-23T05:31:29;25.88;;;12.60;;
64060;SDS011;60147;55.036;73.242;2022-09-23T05:34:00;26.30;;;13.55;;
64060;SDS011;60147;55.036;73.242;2022-09-23T05:36:27;30.58;;;13.98;;
64060;SDS011;60147;55.036;73.242;2022-09-23T05:38:58;21.73;;;12.38;;
64060;SDS011;60147;55.036;73.242;2022-09-23T05:41:25;36.08;;;13.13;;
64060;SDS011;60147;55.036;73.242;2022-09-23T05:43:51;32.85;;;14.20;;
64060;SDS011;60147;55.036;73.242;2022-09-23T05:46:27;30.23;;;13.80;;
64060;SDS011;60147;55.036;73.242;2022-09-23T05:48:57;28.38;;;13.65;;
64060;SDS011;60147;55.036;73.242;2022-09-23T05:51:24;25.75;;;12.73;;
64060;SDS011;60147;55.036;73.242;2022-09-23T05:53:51;27.90;;;13.25;;
64060;SDS011;60147;55.036;73.242;2022-09-23T05:56:21;34.83;;;14.32;;
64060;SDS011;60147;55.036;73.242;2022-09-23T05:58:48;29.13;;;13.80;;
64060;SDS011;60147;55.036;73.242;2022-09-23T06:01:26;24.80;;;13.18;;
64060;SDS011;60147;55.036;73.242;2022-09-23T06:03:53;27.95;;;13.23;;
64060;SDS011;60147;55.036;73.242;2022-09-23T06:06:28;27.80;;;12.82;;
64060;SDS011;60147;55.036;73.242;2022-09-23T06:08:59;22.65;;;12.85;;
64060;SDS011;60147;55.036;73.242;2022-09-23T06:11:35;28.50;;;13.27;;
64060;SDS011;60147;55.036;73.242;2022-09-23T06:14:11;25.85;;;13.35;;
64060;SDS011;60147;55.036;73.242;2022-09-23T06:16:38;24.85;;;11.60;;
64060;SDS011;60147;55.036;73.242;2022-09-23T06:19:04;20.67;;;12.10;;
64060;SDS011;60147;55.036;73.242;2022-09-23T06:21:30;24.42;;;11.73;;
64060;SDS011;60147;55.036;73.242;2022-09-23T06:24:06;25.95;;;11.10;;
64060;SDS011;60147;55.036;73.242;2022-09-23T06:26:32;21.85;;;10.57;;
64060;SDS011;60147;55.036;73.242;2022-09-23T06:28:59;20.02;;;8.75;;
64060;SDS011;60147;55.036;73.242;2022-09-23T06:31:26;21.38;;;8.82;;
64060;SDS011;60147;55.036;73.242;2022-09-23T06:33:52;14.93;;;8.30;;
64060;SDS011;60147;55.036;73.242;2022-09-23T06:36:18;21.45;;;9.15;;
64060;SDS011;60147;55.036;73.242;2022-09-23T06:38:49;13.18;;;8.63;;
64060;SDS011;60147;55.036;73.242;2022-09-23T06:41:18;17.80;;;8.40;;
64060;SDS011;60147;55.036;73.242;2022-09-23T06:43:55;20.65;;;7.32;;
64060;SDS011;60147;55.036;73.242;2022-09-23T06:46:21;13.32;;;7.60;;
64060;SDS011;60147;55.036;73.242;2022-09-23T06:48:50;15.75;;;8.48;;
64060;SDS011;60147;55.036;73.242;2022-09-23T06:51:16;18.17;;;8.43;;
64060;SDS011;60147;55.036;73.242;2022-09-23T06:53:46;14.38;;;8.00;;
64060;SDS011;60147;55.036;73.242;2022-09-23T06:56:12;21.33;;;8.30;;
64060;SDS011;60147;55.036;73.242;2022-09-23T06:58:38;40.72;;;11.82;;
64060;SDS011;60147;55.036;73.242;2022-09-23T07:01:10;32.70;;;11.00;;
64060;SDS011;60147;55.036;73.242;2022-09-23T07:03:46;37.30;;;10.32;;
64060;SDS011;60147;55.036;73.242;2022-09-23T07:06:16;15.13;;;6.63;;
64060;SDS011;60147;55.036;73.242;2022-09-23T07:08:46;17.02;;;7.60;;
64060;SDS011;60147;55.036;73.242;2022-09-23T07:11:13;20.23;;;7.03;;
64060;SDS011;60147;55.036;73.242;2022-09-23T07:13:40;21.40;;;8.23;;
64060;SDS011;60147;55.036;73.242;2022-09-23T07:16:07;18.98;;;6.68;;
64060;SDS011;60147;55.036;73.242;2022-09-23T07:18:33;18.60;;;7.47;;
64060;SDS011;60147;55.036;73.242;2022-09-23T07:21:05;21.40;;;8.02;;
64060;SDS011;60147;55.036;73.242;2022-09-23T07:23:36;28.05;;;8.75;;
64060;SDS011;60147;55.036;73.242;2022-09-23T07:26:03;22.23;;;8.88;;
64060;SDS011;60147;55.036;73.242;2022-09-23T07:28:29;31.42;;;9.35;;
64060;SDS011;60147;55.036;73.242;2022-09-23T07:30:56;45.15;;;15.27;;
64060;SDS011;60147;55.036;73.242;2022-09-23T07:33:22;37.72;;;12.98;;
64060;SDS011;60147;55.036;73.242;2022-09-23T07:35:48;38.42;;;15.88;;
64060;SDS011;60147;55.036;73.242;2022-09-23T07:38:14;35.35;;;13.00;;
64060;SDS011;60147;55.036;73.242;2022-09-23T07:40:40;34.83;;;12.18;;
64060;SDS011;60147;55.036;73.242;2022-09-23T07:43:11;23.25;;;8.95;;
64060;SDS011;60147;55.036;73.242;2022-09-23T07:45:38;31.40;;;10.23;;
64060;SDS011;60147;55.036;73.242;2022-09-23T07:48:08;38.00;;;10.15;;
64060;SDS011;60147;55.036;73.242;2022-09-23T07:50:33;26.58;;;8.77;;
64060;SDS011;60147;55.036;73.242;2022-09-23T07:52:59;34.05;;;10.32;;
64060;SDS011;60147;55.036;73.242;2022-09-23T07:55:27;29.35;;;10.88;;
64060;SDS011;60147;55.036;73.242;2022-09-23T07:58:04;22.77;;;9.32;;
64060;SDS011;60147;55.036;73.242;2022-09-23T08:00:39;31.40;;;10.30;;
64060;SDS011;60147;55.036;73.242;2022-09-23T08:03:05;32.53;;;10.30;;
64060;SDS011;60147;55.036;73.242;2022-09-23T08:05:31;33.58;;;10.57;;
64060;SDS011;60147;55.036;73.242;2022-09-23T08:07:56;32.20;;;12.27;;
64060;SDS011;60147;55.036;73.242;2022-09-23T08:10:27;30.98;;;10.55;;
64060;SDS011;60147;55.036;73.242;2022-09-23T08:13:03;30.77;;;8.75;;
64060;SDS011;60147;55.036;73.242;2022-09-23T08:15:33;24.38;;;9.43;;
64060;SDS011;60147;55.036;73.242;2022-09-23T08:17:59;32.30;;;10.27;;
64060;SDS011;60147;55.036;73.242;2022-09-23T08:20:26;32.70;;;10.60;;
64060;SDS011;60147;55.036;73.242;2022-09-23T08:23:12;31.10;;;10.55;;
64060;SDS011;60147;55.036;73.242;2022-09-23T08:25:42;31.77;;;10.52;;
64060;SDS011;60147;55.036;73.242;2022-09-23T08:28:09;26.25;;;9.13;;
64060;SDS011;60147;55.036;73.242;2022-09-23T08:30:47;26.45;;;9.85;;
64060;SDS011;60147;55.036;73.242;2022-09-23T08:33:13;29.67;;;10.60;;
64060;SDS011;60147;55.036;73.242;2022-09-23T08:35:39;26.92;;;9.77;;
64060;SDS011;60147;55.036;73.242;2022-09-23T08:38:05;28.63;;;9.30;;
64060;SDS011;60147;55.036;73.242;2022-09-23T08:40:32;21.80;;;9.20;;
64060;SDS011;60147;55.036;73.242;2022-09-23T08:42:58;24.98;;;9.10;;
64060;SDS011;60147;55.036;73.242;2022-09-23T08:45:34;24.88;;;9.45;;
64060;SDS011;60147;55.036;73.242;2022-09-23T08:48:12;31.45;;;9.60;;
64060;SDS011;60147;55.036;73.242;2022-09-23T08:50:43;25.95;;;9.43;;
64060;SDS011;60147;55.036;73.242;2022-09-23T08:55:48;32.83;;;9.55;;
64060;SDS011;60147;55.036;73.242;2022-09-23T09:04:13;31.25;;;10.35;;
64060;SDS011;60147;55.036;73.242;2022-09-23T09:06:33;36.05;;;10.25;;
64060;SDS011;60147;55.036;73.242;2022-09-23T09:09:20;33.55;;;11.27;;
64060;SDS011;60147;55.036;73.242;2022-09-23T09:11:54;29.23;;;10.25;;
64060;SDS011;60147;55.036;73.242;2022-09-23T09:14:32;33.15;;;11.10;;
64060;SDS011;60147;55.036;73.242;2022-09-23T09:17:01;37.40;;;10.52;;
64060;SDS011;60147;55.036;73.242;2022-09-23T09:22:01;33.53;;;10.63;;
64060;SDS011;60147;55.036;73.242;2022-09-23T09:24:33;30.38;;;9.68;;
64060;SDS011;60147;55.036;73.242;2022-09-23T09:27:00;31.25;;;10.13;;
64060;SDS011;60147;55.036;73.242;2022-09-23T09:29:27;32.05;;;10.18;;
64060;SDS011;60147;55.036;73.242;2022-09-23T09:31:56;32.30;;;9.75;;
64060;SDS011;60147;55.036;73.242;2022-09-23T09:34:34;32.28;;;9.38;;
64060;SDS011;60147;55.036;73.242;2022-09-23T09:39:32;31.25;;;9.82;;
64060;SDS011;60147;55.036;73.242;2022-09-23T09:41:58;32.65;;;10.05;;
64060;SDS011;60147;55.036;73.242;2022-09-23T09:44:31;31.80;;;10.32;;
64060;SDS011;60147;55.036;73.242;2022-09-23T09:50:40;32.80;;;10.38;;
64060;SDS011;60147;55.036;73.242;2022-09-23T09:52:31;30.52;;;10.13;;
64060;SDS011;60147;55.036;73.242;2022-09-23T09:57:41;31.58;;;10.20;;
64060;SDS011;60147;55.036;73.242;2022-09-23T10:02:57;39.87;;;11.27;;
64060;SDS011;60147;55.036;73.242;2022-09-23T10:07:50;32.95;;;11.60;;
64060;SDS011;60147;55.036;73.242;2022-09-23T10:10:17;38.20;;;12.23;;
64060;SDS011;60147;55.036;73.242;2022-09-23T10:12:45;35.72;;;12.02;;
64060;SDS011;60147;55.036;73.242;2022-09-23T10:15:40;41.05;;;11.50;;
64060;SDS011;60147;55.036;73.242;2022-09-23T10:18:15;31.15;;;11.15;;
64060;SDS011;60147;55.036;73.242;2022-09-23T10:20:44;34.00;;;11.23;;
64060;SDS011;60147;55.036;73.242;2022-09-23T10:23:13;34.88;;;11.52;;
64060;SDS011;60147;55.036;73.242;2022-09-23T10:25:40;36.88;;;11.60;;
64060;SDS011;60147;55.036;73.242;2022-09-23T10:28:28;26.83;;;11.20;;
64060;SDS011;60147;55.036;73.242;2022-09-23T10:31:09;30.02;;;10.90;;
64060;SDS011;60147;55.036;73.242;2022-09-23T10:33:40;33.45;;;10.98;;
64060;SDS011;60147;55.036;73.242;2022-09-23T10:38:37;29.77;;;11.32;;
64060;SDS011;60147;55.036;73.242;2022-09-23T10:41:13;38.35;;;12.48;;
64060;SDS011;60147;55.036;73.242;2022-09-23T10:44:29;43.97;;;13.55;;
64060;SDS011;60147;55.036;73.242;2022-09-23T10:47:22;37.17;;;12.70;;
64060;SDS011;60147;55.036;73.242;2022-09-23T10:50:03;35.35;;;12.50;;
64060;SDS011;60147;55.036;73.242;2022-09-23T11:10:47;40.78;;;12.27;;
64060;SDS011;60147;55.036;73.242;2022-09-23T11:18:49;52.40;;;20.50;;
64060;SDS011;60147;55.036;73.242;2022-09-23T11:37:27;59.70;;;27.45;;
64060;SDS011;60147;55.036;73.242;2022-09-23T11:40:05;67.57;;;26.98;;
64060;SDS011;60147;55.036;73.242;2022-09-23T11:43:12;52.13;;;21.63;;
64060;SDS011;60147;55.036;73.242;2022-09-23T11:45:44;49.70;;;19.55;;
64060;SDS011;60147;55.036;73.242;2022-09-23T11:48:15;49.97;;;15.15;;
64060;SDS011;60147;55.036;73.242;2022-09-23T11:51:21;50.83;;;14.38;;
64060;SDS011;60147;55.036;73.242;2022-09-23T11:53:51;56.58;;;15.05;;
64060;SDS011;60147;55.036;73.242;2022-09-23T11:59:05;64.68;;;13.75;;
64060;SDS011;60147;55.036;73.242;2022-09-23T12:01:49;54.50;;;13.65;;
64060;SDS011;60147;55.036;73.242;2022-09-23T12:06:54;47.15;;;13.35;;
64060;SDS011;60147;55.036;73.242;2022-09-23T12:09:33;51.63;;;12.80;;
64060;SDS011;60147;55.036;73.242;2022-09-23T12:12:07;58.92;;;12.57;;
64060;SDS011;60147;55.036;73.242;2022-09-23T12:17:26;58.42;;;13.80;;
64060;SDS011;60147;55.036;73.242;2022-09-23T12:27:47;74.88;;;21.83;;
64060;SDS011;60147;55.036;73.242;2022-09-23T12:30:19;85.15;;;22.20;;
64060;SDS011;60147;55.036;73.242;2022-09-23T12:32:45;79.50;;;21.75;;
64060;SDS011;60147;55.036;73.242;2022-09-23T12:35:29;84.05;;;21.73;;
64060;SDS011;60147;55.036;73.242;2022-09-23T12:43:32;79.28;;;19.38;;
64060;SDS011;60147;55.036;73.242;2022-09-23T12:51:32;94.05;;;29.23;;
64060;SDS011;60147;55.036;73.242;2022-09-23T13:01:51;187.27;;;38.47;;
64060;SDS011;60147;55.036;73.242;2022-09-23T13:07:25;141.23;;;34.72;;
64060;SDS011;60147;55.036;73.242;2022-09-23T13:09:56;158.13;;;34.47;;
64060;SDS011;60147;55.036;73.242;2022-09-23T13:12:24;157.55;;;37.75;;
64060;SDS011;60147;55.036;73.242;2022-09-23T13:14:53;123.90;;;39.55;;
64060;SDS011;60147;55.036;73.242;2022-09-23T13:17:21;126.53;;;40.45;;
64060;SDS011;60147;55.036;73.242;2022-09-23T13:19:49;127.47;;;41.72;;
64060;SDS011;60147;55.036;73.242;2022-09-23T13:22:38;133.43;;;42.03;;
64060;SDS011;60147;55.036;73.242;2022-09-23T13:25:43;147.70;;;44.67;;
64060;SDS011;60147;55.036;73.242;2022-09-23T13:28:02;208.13;;;50.03;;
64060;SDS011;60147;55.036;73.242;2022-09-23T13:30:37;202.70;;;54.92;;
64060;SDS011;60147;55.036;73.242;2022-09-23T13:33:16;213.57;;;68.80;;
64060;SDS011;60147;55.036;73.242;2022-09-23T13:35:44;223.27;;;70.22;;
64060;SDS011;60147;55.036;73.242;2022-09-23T13:40:41;205.90;;;67.88;;
64060;SDS011;60147;55.036;73.242;2022-09-23T13:43:21;222.25;;;69.85;;
64060;SDS011;60147;55.036;73.242;2022-09-23T13:45:47;219.63;;;56.08;;
64060;SDS011;60147;55.036;73.242;2022-09-23T13:48:14;214.15;;;59.33;;
64060;SDS011;60147;55.036;73.242;2022-09-23T13:50:47;175.18;;;55.40;;
64060;SDS011;60147;55.036;73.242;2022-09-23T13:53:24;185.27;;;51.70;;
64060;SDS011;60147;55.036;73.242;2022-09-23T13:55:58;153.73;;;51.00;;
64060;SDS011;60147;55.036;73.242;2022-09-23T13:58:34;144.75;;;47.95;;
64060;SDS011;60147;55.036;73.242;2022-09-23T14:01:01;197.00;;;68.40;;
64060;SDS011;60147;55.036;73.242;2022-09-23T14:03:30;177.30;;;55.30;;
64060;SDS011;60147;55.036;73.242;2022-09-23T14:05:57;186.17;;;60.33;;
64060;SDS011;60147;55.036;73.242;2022-09-23T14:08:24;246.85;;;81.90;;
64060;SDS011;60147;55.036;73.242;2022-09-23T14:10:51;204.18;;;71.28;;
64060;SDS011;60147;55.036;73.242;2022-09-23T14:13:22;225.07;;;75.95;;
64060;SDS011;60147;55.036;73.242;2022-09-23T14:15:49;224.85;;;77.65;;
64060;SDS011;60147;55.036;73.242;2022-09-23T14:18:34;241.30;;;84.15;;
64060;SDS011;60147;55.036;73.242;2022-09-23T14:21:01;272.05;;;95.63;;
64060;SDS011;60147;55.036;73.242;2022-09-23T14:23:27;260.58;;;93.00;;
64060;SDS011;60147;55.036;73.242;2022-09-23T14:25:53;291.38;;;98.10;;
64060;SDS011;60147;55.036;73.242;2022-09-23T14:28:20;249.30;;;89.43;;
64060;SDS011;60147;55.036;73.242;2022-09-23T14:30:47;274.50;;;103.13;;
64060;SDS011;60147;55.036;73.242;2022-09-23T14:33:18;291.30;;;115.78;;
64060;SDS011;60147;55.036;73.242;2022-09-23T14:35:49;304.88;;;122.13;;
64060;SDS011;60147;55.036;73.242;2022-09-23T14:38:26;299.48;;;123.50;;
64060;SDS011;60147;55.036;73.242;2022-09-23T14:41:13;272.77;;;110.75;;
64060;SDS011;60147;55.036;73.242;2022-09-23T14:43:47;230.70;;;94.45;;
64060;SDS011;60147;55.036;73.242;2022-09-23T14:46:15;208.18;;;80.22;;
64060;SDS011;60147;55.036;73.242;2022-09-23T14:48:41;206.77;;;77.82;;
64060;SDS011;60147;55.036;73.242;2022-09-23T14:51:07;175.35;;;65.05;;
64060;SDS011;60147;55.036;73.242;2022-09-23T14:53:35;190.77;;;68.82;;
64060;SDS011;60147;55.036;73.242;2022-09-23T14:56:13;187.10;;;67.38;;
64060;SDS011;60147;55.036;73.242;2022-09-23T14:58:41;177.70;;;62.47;;
64060;SDS011;60147;55.036;73.242;2022-09-23T15:04:07;261.80;;;99.43;;
64060;SDS011;60147;55.036;73.242;2022-09-23T15:06:50;221.45;;;85.53;;
64060;SDS011;60147;55.036;73.242;2022-09-23T15:09:26;224.20;;;87.75;;
64060;SDS011;60147;55.036;73.242;2022-09-23T15:14:25;161.05;;;58.75;;
64060;SDS011;60147;55.036;73.242;2022-09-23T15:16:57;122.57;;;50.03;;
64060;SDS011;60147;55.036;73.242;2022-09-23T15:19:23;131.95;;;53.22;;
64060;SDS011;60147;55.036;73.242;2022-09-23T15:21:50;136.25;;;53.17;;
64060;SDS011;60147;55.036;73.242;2022-09-23T15:27:01;209.85;;;73.45;;
64060;SDS011;60147;55.036;73.242;2022-09-23T15:29:37;198.02;;;70.10;;
64060;SDS011;60147;55.036;73.242;2022-09-23T15:32:03;196.73;;;73.70;;
64060;SDS011;60147;55.036;73.242;2022-09-23T15:34:40;210.85;;;80.10;;
64060;SDS011;60147;55.036;73.242;2022-09-23T15:37:16;192.30;;;68.30;;
64060;SDS011;60147;55.036;73.242;2022-09-23T15:39:48;146.82;;;57.40;;
64060;SDS011;60147;55.036;73.242;2022-09-23T15:42:23;139.77;;;56.10;;
64060;SDS011;60147;55.036;73.242;2022-09-23T15:44:49;141.52;;;53.17;;
64060;SDS011;60147;55.036;73.242;2022-09-23T15:47:15;139.32;;;52.83;;
64060;SDS011;60147;55.036;73.242;2022-09-23T15:49:46;126.97;;;50.55;;
64060;SDS011;60147;55.036;73.242;2022-09-23T15:52:13;124.20;;;42.55;;
64060;SDS011;60147;55.036;73.242;2022-09-23T15:54:50;117.18;;;41.13;;
64060;SDS011;60147;55.036;73.242;2022-09-23T15:57:16;115.43;;;39.97;;
64060;SDS011;60147;55.036;73.242;2022-09-23T15:59:43;106.93;;;37.30;;
64060;SDS011;60147;55.036;73.242;2022-09-23T16:02:18;108.47;;;37.08;;
64060;SDS011;60147;55.036;73.242;2022-09-23T16:07:21;103.38;;;36.22;;
64060;SDS011;60147;55.036;73.242;2022-09-23T16:09:47;98.60;;;34.97;;
64060;SDS011;60147;55.036;73.242;2022-09-23T16:12:13;98.75;;;34.47;;
64060;SDS011;60147;55.036;73.242;2022-09-23T16:14:40;106.60;;;34.83;;
64060;SDS011;60147;55.036;73.242;2022-09-23T16:17:06;102.03;;;34.92;;
64060;SDS011;60147;55.036;73.242;2022-09-23T16:19:43;105.28;;;35.40;;
64060;SDS011;60147;55.036;73.242;2022-09-23T16:22:10;115.35;;;33.58;;
64060;SDS011;60147;55.036;73.242;2022-09-23T16:24:38;137.77;;;34.33;;
64060;SDS011;60147;55.036;73.242;2022-09-23T16:29:35;94.35;;;33.40;;
64060;SDS011;60147;55.036;73.242;2022-09-23T16:32:01;122.20;;;36.85;;
64060;SDS011;60147;55.036;73.242;2022-09-23T16:34:26;130.80;;;39.10;;
64060;SDS011;60147;55.036;73.242;2022-09-23T16:37:03;124.43;;;35.90;;
64060;SDS011;60147;55.036;73.242;2022-09-23T16:39:29;105.93;;;35.10;;
64060;SDS011;60147;55.036;73.242;2022-09-23T16:41:55;85.60;;;31.92;;
64060;SDS011;60147;55.036;73.242;2022-09-23T16:44:22;82.32;;;29.02;;
64060;SDS011;60147;55.036;73.242;2022-09-23T16:46:48;70.90;;;26.95;;
64060;SDS011;60147;55.036;73.242;2022-09-23T16:49:20;67.97;;;27.35;;
64060;SDS011;60147;55.036;73.242;2022-09-23T16:51:46;67.72;;;25.60;;
64060;SDS011;60147;55.036;73.242;2022-09-23T16:54:12;60.08;;;25.83;;
64060;SDS011;60147;55.036;73.242;2022-09-23T16:56:41;56.40;;;22.73;;
64060;SDS011;60147;55.036;73.242;2022-09-23T16:59:15;58.53;;;21.48;;
64060;SDS011;60147;55.036;73.242;2022-09-23T17:01:41;46.65;;;18.90;;
64060;SDS011;60147;55.036;73.242;2022-09-23T17:04:25;44.58;;;17.45;;
64060;SDS011;60147;55.036;73.242;2022-09-23T17:06:52;48.10;;;18.55;;
64060;SDS011;60147;55.036;73.242;2022-09-23T17:09:19;40.95;;;17.38;;
64060;SDS011;60147;55.036;73.242;2022-09-23T17:11:45;43.92;;;17.85;;
64060;SDS011;60147;55.036;73.242;2022-09-23T17:14:14;51.05;;;19.10;;
64060;SDS011;60147;55.036;73.242;2022-09-23T17:16:39;42.00;;;17.48;;
64060;SDS011;60147;55.036;73.242;2022-09-23T17:19:06;43.30;;;17.15;;
64060;SDS011;60147;55.036;73.242;2022-09-23T17:21:32;42.67;;;17.05;;
64060;SDS011;60147;55.036;73.242;2022-09-23T17:23:58;42.03;;;17.05;;
64060;SDS011;60147;55.036;73.242;2022-09-23T17:26:25;43.85;;;17.98;;
64060;SDS011;60147;55.036;73.242;2022-09-23T17:29:01;42.85;;;18.25;;
64060;SDS011;60147;55.036;73.242;2022-09-23T17:31:27;42.15;;;17.98;;
64060;SDS011;60147;55.036;73.242;2022-09-23T17:33:53;45.05;;;18.55;;
64060;SDS011;60147;55.036;73.242;2022-09-23T17:36:19;43.55;;;18.52;;
64060;SDS011;60147;55.036;73.242;2022-09-23T17:38:46;51.63;;;18.40;;
64060;SDS011;60147;55.036;73.242;2022-09-23T17:41:22;47.72;;;18.65;;